sensor_id;sensor_type;location;lat;lon;timestamp;P1;durP1;ratioP1;P2;durP2;ratioP2
85243;SDS011;75643;56.928;41.094;2024-01-15T00:00:55;4.97;;;2.90;;
85243;SDS011;75643;56.928;41.094;2024-01-15T00:03:21;7.05;;;2.45;;
85243;SDS011;75643;56.928;41.094;2024-01-15T00:05:48;7.22;;;2.72;;
85243;SDS011;75643;56.928;41.094;2024-01-15T00:08:14;6.10;;;2.90;;
85243;SDS011;75643;56.928;41.094;2024-01-15T00:10:40;7.15;;;2.92;;
85243;SDS011;75643;56.928;41.094;2024-01-15T00:13:06;5.28;;;3.22;;
85243;SDS011;75643;56.928;41.094;2024-01-15T00:15:33;4.72;;;2.53;;
85243;SDS011;75643;56.928;41.094;2024-01-15T00:17:59;4.75;;;2.15;;
85243;SDS011;75643;56.928;41.094;2024-01-15T00:20:25;5.32;;;2.72;;
85243;SDS011;75643;56.928;41.094;2024-01-15T00:22:51;5.60;;;2.63;;
85243;SDS011;75643;56.928;41.094;2024-01-15T00:25:17;5.07;;;2.55;;
85243;SDS011;75643;56.928;41.094;2024-01-15T00:27:43;6.70;;;3.65;;
85243;SDS011;75643;56.928;41.094;2024-01-15T00:30:09;6.22;;;3.22;;
85243;SDS011;75643;56.928;41.094;2024-01-15T00:32:36;5.63;;;3.15;;
85243;SDS011;75643;56.928;41.094;2024-01-15T00:35:02;3.22;;;2.08;;
85243;SDS011;75643;56.928;41.094;2024-01-15T00:37:29;2.97;;;2.38;;
85243;SDS011;75643;56.928;41.094;2024-01-15T00:39:55;3.88;;;2.28;;
85243;SDS011;75643;56.928;41.094;2024-01-15T00:42:21;3.22;;;2.10;;
85243;SDS011;75643;56.928;41.094;2024-01-15T00:44:47;4.03;;;2.85;;
85243;SDS011;75643;56.928;41.094;2024-01-15T00:47:14;4.63;;;2.92;;
85243;SDS011;75643;56.928;41.094;2024-01-15T00:49:40;6.32;;;2.55;;
85243;SDS011;75643;56.928;41.094;2024-01-15T00:52:06;5.55;;;3.22;;
85243;SDS011;75643;56.928;41.094;2024-01-15T00:54:32;6.72;;;2.80;;
85243;SDS011;75643;56.928;41.094;2024-01-15T00:56:59;4.68;;;2.25;;
85243;SDS011;75643;56.928;41.094;2024-01-15T00:59:25;8.48;;;3.47;;
85243;SDS011;75643;56.928;41.094;2024-01-15T01:01:51;9.40;;;3.03;;
85243;SDS011;75643;56.928;41.094;2024-01-15T01:04:17;6.55;;;2.92;;
85243;SDS011;75643;56.928;41.094;2024-01-15T01:06:43;6.60;;;2.50;;
85243;SDS011;75643;56.928;41.094;2024-01-15T01:09:09;4.25;;;2.28;;
85243;SDS011;75643;56.928;41.094;2024-01-15T01:11:35;5.78;;;2.63;;
85243;SDS011;75643;56.928;41.094;2024-01-15T01:14:01;9.82;;;3.47;;
85243;SDS011;75643;56.928;41.094;2024-01-15T01:16:27;6.57;;;2.80;;
85243;SDS011;75643;56.928;41.094;2024-01-15T01:18:53;4.45;;;2.50;;
85243;SDS011;75643;56.928;41.094;2024-01-15T01:21:19;4.65;;;2.50;;
85243;SDS011;75643;56.928;41.094;2024-01-15T01:23:45;5.32;;;2.83;;
85243;SDS011;75643;56.928;41.094;2024-01-15T01:26:15;3.35;;;2.20;;
85243;SDS011;75643;56.928;41.094;2024-01-15T01:28:42;3.00;;;2.00;;
85243;SDS011;75643;56.928;41.094;2024-01-15T01:31:08;4.72;;;2.42;;
85243;SDS011;75643;56.928;41.094;2024-01-15T01:33:34;4.90;;;1.90;;
85243;SDS011;75643;56.928;41.094;2024-01-15T01:36:00;5.38;;;3.17;;
85243;SDS011;75643;56.928;41.094;2024-01-15T01:38:26;5.45;;;2.35;;
85243;SDS011;75643;56.928;41.094;2024-01-15T01:40:52;5.60;;;2.78;;
85243;SDS011;75643;56.928;41.094;2024-01-15T01:43:18;2.90;;;1.83;;
85243;SDS011;75643;56.928;41.094;2024-01-15T01:45:45;3.80;;;2.53;;
85243;SDS011;75643;56.928;41.094;2024-01-15T01:48:11;6.40;;;3.13;;
85243;SDS011;75643;56.928;41.094;2024-01-15T01:50:37;3.05;;;1.85;;
85243;SDS011;75643;56.928;41.094;2024-01-15T01:53:03;7.30;;;3.20;;
85243;SDS011;75643;56.928;41.094;2024-01-15T01:55:29;4.68;;;2.42;;
85243;SDS011;75643;56.928;41.094;2024-01-15T01:57:58;7.38;;;3.20;;
85243;SDS011;75643;56.928;41.094;2024-01-15T02:00:25;4.13;;;2.40;;
85243;SDS011;75643;56.928;41.094;2024-01-15T02:02:51;5.13;;;2.13;;
85243;SDS011;75643;56.928;41.094;2024-01-15T02:05:18;6.95;;;3.28;;
85243;SDS011;75643;56.928;41.094;2024-01-15T02:07:46;6.30;;;1.88;;
85243;SDS011;75643;56.928;41.094;2024-01-15T02:10:13;6.63;;;2.45;;
85243;SDS011;75643;56.928;41.094;2024-01-15T02:12:39;4.50;;;2.72;;
85243;SDS011;75643;56.928;41.094;2024-01-15T02:15:06;7.30;;;2.58;;
85243;SDS011;75643;56.928;41.094;2024-01-15T02:17:33;5.28;;;2.13;;
85243;SDS011;75643;56.928;41.094;2024-01-15T02:19:59;7.22;;;3.15;;
85243;SDS011;75643;56.928;41.094;2024-01-15T02:22:26;4.30;;;2.50;;
85243;SDS011;75643;56.928;41.094;2024-01-15T02:24:52;4.75;;;2.72;;
85243;SDS011;75643;56.928;41.094;2024-01-15T02:27:19;4.78;;;2.55;;
85243;SDS011;75643;56.928;41.094;2024-01-15T02:29:46;4.60;;;2.60;;
85243;SDS011;75643;56.928;41.094;2024-01-15T02:32:12;9.70;;;3.00;;
85243;SDS011;75643;56.928;41.094;2024-01-15T02:34:38;5.70;;;2.42;;
85243;SDS011;75643;56.928;41.094;2024-01-15T02:37:04;4.05;;;2.80;;
85243;SDS011;75643;56.928;41.094;2024-01-15T02:39:30;3.35;;;2.20;;
85243;SDS011;75643;56.928;41.094;2024-01-15T02:41:56;6.80;;;3.15;;
85243;SDS011;75643;56.928;41.094;2024-01-15T02:44:23;5.40;;;2.42;;
85243;SDS011;75643;56.928;41.094;2024-01-15T02:46:49;3.40;;;2.08;;
85243;SDS011;75643;56.928;41.094;2024-01-15T02:49:15;9.13;;;3.35;;
85243;SDS011;75643;56.928;41.094;2024-01-15T02:51:41;6.13;;;2.70;;
85243;SDS011;75643;56.928;41.094;2024-01-15T02:54:07;7.60;;;2.97;;
85243;SDS011;75643;56.928;41.094;2024-01-15T02:56:33;5.65;;;2.88;;
85243;SDS011;75643;56.928;41.094;2024-01-15T02:59:00;6.45;;;2.95;;
85243;SDS011;75643;56.928;41.094;2024-01-15T03:01:26;4.50;;;3.05;;
85243;SDS011;75643;56.928;41.094;2024-01-15T03:03:52;2.78;;;1.73;;
85243;SDS011;75643;56.928;41.094;2024-01-15T03:06:18;3.42;;;2.15;;
85243;SDS011;75643;56.928;41.094;2024-01-15T03:08:45;4.35;;;2.60;;
85243;SDS011;75643;56.928;41.094;2024-01-15T03:11:11;6.03;;;2.72;;
85243;SDS011;75643;56.928;41.094;2024-01-15T03:13:37;4.78;;;2.72;;
85243;SDS011;75643;56.928;41.094;2024-01-15T03:16:04;4.07;;;2.22;;
85243;SDS011;75643;56.928;41.094;2024-01-15T03:18:31;5.40;;;2.30;;
85243;SDS011;75643;56.928;41.094;2024-01-15T03:20:57;3.35;;;2.25;;
85243;SDS011;75643;56.928;41.094;2024-01-15T03:23:24;7.28;;;3.17;;
85243;SDS011;75643;56.928;41.094;2024-01-15T03:25:50;6.57;;;2.40;;
85243;SDS011;75643;56.928;41.094;2024-01-15T03:28:16;5.18;;;2.33;;
85243;SDS011;75643;56.928;41.094;2024-01-15T03:30:43;5.10;;;3.00;;
85243;SDS011;75643;56.928;41.094;2024-01-15T03:33:09;7.05;;;2.35;;
85243;SDS011;75643;56.928;41.094;2024-01-15T03:35:35;5.75;;;3.08;;
85243;SDS011;75643;56.928;41.094;2024-01-15T03:38:01;4.85;;;3.35;;
85243;SDS011;75643;56.928;41.094;2024-01-15T03:40:28;2.65;;;1.65;;
85243;SDS011;75643;56.928;41.094;2024-01-15T03:42:54;4.47;;;2.55;;
85243;SDS011;75643;56.928;41.094;2024-01-15T03:45:20;5.65;;;3.15;;
85243;SDS011;75643;56.928;41.094;2024-01-15T03:47:46;5.10;;;2.63;;
85243;SDS011;75643;56.928;41.094;2024-01-15T03:50:12;7.25;;;2.55;;
85243;SDS011;75643;56.928;41.094;2024-01-15T03:52:38;6.05;;;2.83;;
85243;SDS011;75643;56.928;41.094;2024-01-15T03:55:05;4.45;;;2.88;;
85243;SDS011;75643;56.928;41.094;2024-01-15T03:57:31;4.10;;;2.38;;
85243;SDS011;75643;56.928;41.094;2024-01-15T03:59:57;3.92;;;2.47;;
85243;SDS011;75643;56.928;41.094;2024-01-15T04:02:23;12.60;;;3.00;;
85243;SDS011;75643;56.928;41.094;2024-01-15T04:04:49;6.10;;;2.22;;
85243;SDS011;75643;56.928;41.094;2024-01-15T04:07:15;3.45;;;2.05;;
85243;SDS011;75643;56.928;41.094;2024-01-15T04:09:41;11.90;;;3.03;;
85243;SDS011;75643;56.928;41.094;2024-01-15T04:12:07;4.07;;;2.35;;
85243;SDS011;75643;56.928;41.094;2024-01-15T04:14:33;4.38;;;2.65;;
85243;SDS011;75643;56.928;41.094;2024-01-15T04:17:00;4.45;;;2.75;;
85243;SDS011;75643;56.928;41.094;2024-01-15T04:19:26;6.30;;;3.30;;
85243;SDS011;75643;56.928;41.094;2024-01-15T04:21:52;5.43;;;2.83;;
85243;SDS011;75643;56.928;41.094;2024-01-15T04:24:18;4.32;;;1.92;;
85243;SDS011;75643;56.928;41.094;2024-01-15T04:26:44;4.15;;;2.47;;
85243;SDS011;75643;56.928;41.094;2024-01-15T04:29:11;3.88;;;2.45;;
85243;SDS011;75643;56.928;41.094;2024-01-15T04:31:37;5.35;;;2.85;;
85243;SDS011;75643;56.928;41.094;2024-01-15T04:34:03;5.13;;;2.42;;
85243;SDS011;75643;56.928;41.094;2024-01-15T04:36:29;4.25;;;2.20;;
85243;SDS011;75643;56.928;41.094;2024-01-15T04:38:55;4.35;;;2.17;;
85243;SDS011;75643;56.928;41.094;2024-01-15T04:41:22;5.28;;;3.03;;
85243;SDS011;75643;56.928;41.094;2024-01-15T04:43:49;3.30;;;2.13;;
85243;SDS011;75643;56.928;41.094;2024-01-15T04:46:15;7.40;;;2.47;;
85243;SDS011;75643;56.928;41.094;2024-01-15T04:48:41;3.75;;;2.08;;
85243;SDS011;75643;56.928;41.094;2024-01-15T04:51:08;5.15;;;2.60;;
85243;SDS011;75643;56.928;41.094;2024-01-15T04:53:34;3.95;;;2.40;;
85243;SDS011;75643;56.928;41.094;2024-01-15T04:56:01;5.05;;;3.30;;
85243;SDS011;75643;56.928;41.094;2024-01-15T04:58:27;8.98;;;2.58;;
85243;SDS011;75643;56.928;41.094;2024-01-15T05:00:53;5.60;;;3.35;;
85243;SDS011;75643;56.928;41.094;2024-01-15T05:03:20;7.40;;;3.17;;
85243;SDS011;75643;56.928;41.094;2024-01-15T05:05:46;7.45;;;3.10;;
85243;SDS011;75643;56.928;41.094;2024-01-15T05:08:14;5.57;;;3.10;;
85243;SDS011;75643;56.928;41.094;2024-01-15T05:10:40;4.30;;;2.90;;
85243;SDS011;75643;56.928;41.094;2024-01-15T05:13:06;6.22;;;3.05;;
85243;SDS011;75643;56.928;41.094;2024-01-15T05:15:32;3.65;;;2.05;;
85243;SDS011;75643;56.928;41.094;2024-01-15T05:17:59;6.10;;;2.90;;
85243;SDS011;75643;56.928;41.094;2024-01-15T05:20:26;8.15;;;3.35;;
85243;SDS011;75643;56.928;41.094;2024-01-15T05:22:52;7.00;;;3.55;;
85243;SDS011;75643;56.928;41.094;2024-01-15T05:25:18;4.55;;;2.63;;
85243;SDS011;75643;56.928;41.094;2024-01-15T05:27:44;5.00;;;2.45;;
85243;SDS011;75643;56.928;41.094;2024-01-15T05:30:10;3.35;;;2.17;;
85243;SDS011;75643;56.928;41.094;2024-01-15T05:32:37;6.55;;;3.40;;
85243;SDS011;75643;56.928;41.094;2024-01-15T05:35:03;4.43;;;2.53;;
85243;SDS011;75643;56.928;41.094;2024-01-15T05:37:29;4.35;;;2.65;;
85243;SDS011;75643;56.928;41.094;2024-01-15T05:39:55;8.10;;;2.97;;
85243;SDS011;75643;56.928;41.094;2024-01-15T05:42:22;5.82;;;3.22;;
85243;SDS011;75643;56.928;41.094;2024-01-15T05:44:48;6.90;;;3.38;;
85243;SDS011;75643;56.928;41.094;2024-01-15T05:47:14;4.18;;;2.40;;
85243;SDS011;75643;56.928;41.094;2024-01-15T05:49:40;6.47;;;3.08;;
85243;SDS011;75643;56.928;41.094;2024-01-15T05:52:06;7.60;;;3.83;;
85243;SDS011;75643;56.928;41.094;2024-01-15T05:54:32;9.15;;;2.95;;
85243;SDS011;75643;56.928;41.094;2024-01-15T05:56:58;5.35;;;3.65;;
85243;SDS011;75643;56.928;41.094;2024-01-15T05:59:24;6.93;;;3.80;;
85243;SDS011;75643;56.928;41.094;2024-01-15T06:01:51;7.47;;;4.25;;
85243;SDS011;75643;56.928;41.094;2024-01-15T06:04:17;7.88;;;3.53;;
85243;SDS011;75643;56.928;41.094;2024-01-15T06:06:43;4.53;;;2.40;;
85243;SDS011;75643;56.928;41.094;2024-01-15T06:09:09;9.95;;;4.95;;
85243;SDS011;75643;56.928;41.094;2024-01-15T06:11:35;6.00;;;2.70;;
85243;SDS011;75643;56.928;41.094;2024-01-15T06:14:01;13.05;;;5.10;;
85243;SDS011;75643;56.928;41.094;2024-01-15T06:16:28;5.57;;;2.65;;
85243;SDS011;75643;56.928;41.094;2024-01-15T06:18:54;6.30;;;3.67;;
85243;SDS011;75643;56.928;41.094;2024-01-15T06:21:20;8.48;;;3.95;;
85243;SDS011;75643;56.928;41.094;2024-01-15T06:23:47;7.07;;;3.15;;
85243;SDS011;75643;56.928;41.094;2024-01-15T06:26:13;5.78;;;2.65;;
85243;SDS011;75643;56.928;41.094;2024-01-15T06:28:39;7.35;;;3.40;;
85243;SDS011;75643;56.928;41.094;2024-01-15T06:31:08;6.30;;;3.58;;
85243;SDS011;75643;56.928;41.094;2024-01-15T06:33:34;7.72;;;3.70;;
85243;SDS011;75643;56.928;41.094;2024-01-15T06:36:00;5.75;;;2.78;;
85243;SDS011;75643;56.928;41.094;2024-01-15T06:38:27;4.57;;;2.28;;
85243;SDS011;75643;56.928;41.094;2024-01-15T06:40:53;11.50;;;4.03;;
85243;SDS011;75643;56.928;41.094;2024-01-15T06:43:19;6.38;;;3.67;;
85243;SDS011;75643;56.928;41.094;2024-01-15T06:45:45;7.95;;;3.65;;
85243;SDS011;75643;56.928;41.094;2024-01-15T06:48:11;6.38;;;2.83;;
85243;SDS011;75643;56.928;41.094;2024-01-15T06:50:43;8.60;;;4.22;;
85243;SDS011;75643;56.928;41.094;2024-01-15T06:53:09;6.35;;;3.40;;
85243;SDS011;75643;56.928;41.094;2024-01-15T06:55:38;4.95;;;3.10;;
85243;SDS011;75643;56.928;41.094;2024-01-15T06:58:04;6.40;;;2.85;;
85243;SDS011;75643;56.928;41.094;2024-01-15T07:00:30;8.55;;;3.55;;
85243;SDS011;75643;56.928;41.094;2024-01-15T07:02:59;5.60;;;3.25;;
85243;SDS011;75643;56.928;41.094;2024-01-15T07:05:25;6.20;;;2.92;;
85243;SDS011;75643;56.928;41.094;2024-01-15T07:07:52;7.20;;;3.42;;
85243;SDS011;75643;56.928;41.094;2024-01-15T07:10:18;7.60;;;3.78;;
85243;SDS011;75643;56.928;41.094;2024-01-15T07:12:44;6.63;;;3.45;;
85243;SDS011;75643;56.928;41.094;2024-01-15T07:15:20;4.38;;;2.95;;
85243;SDS011;75643;56.928;41.094;2024-01-15T07:17:46;6.70;;;3.20;;
85243;SDS011;75643;56.928;41.094;2024-01-15T07:20:19;5.15;;;2.45;;
85243;SDS011;75643;56.928;41.094;2024-01-15T07:22:58;6.97;;;3.17;;
85243;SDS011;75643;56.928;41.094;2024-01-15T07:25:25;2.95;;;2.13;;
85243;SDS011;75643;56.928;41.094;2024-01-15T07:27:57;5.68;;;2.53;;
85243;SDS011;75643;56.928;41.094;2024-01-15T07:30:23;6.63;;;3.53;;
85243;SDS011;75643;56.928;41.094;2024-01-15T07:32:53;8.95;;;3.53;;
85243;SDS011;75643;56.928;41.094;2024-01-15T07:35:22;3.97;;;2.65;;
85243;SDS011;75643;56.928;41.094;2024-01-15T07:37:51;8.43;;;3.40;;
85243;SDS011;75643;56.928;41.094;2024-01-15T07:40:24;6.63;;;4.10;;
85243;SDS011;75643;56.928;41.094;2024-01-15T07:45:50;7.72;;;3.22;;
85243;SDS011;75643;56.928;41.094;2024-01-15T07:48:52;7.75;;;3.65;;
85243;SDS011;75643;56.928;41.094;2024-01-15T07:51:40;7.72;;;3.55;;
85243;SDS011;75643;56.928;41.094;2024-01-15T07:54:25;7.38;;;3.28;;
85243;SDS011;75643;56.928;41.094;2024-01-15T07:56:57;7.13;;;3.20;;
85243;SDS011;75643;56.928;41.094;2024-01-15T07:59:28;7.43;;;3.08;;
85243;SDS011;75643;56.928;41.094;2024-01-15T08:01:58;5.78;;;2.30;;
85243;SDS011;75643;56.928;41.094;2024-01-15T08:04:25;8.35;;;3.97;;
85243;SDS011;75643;56.928;41.094;2024-01-15T08:06:54;4.43;;;3.05;;
85243;SDS011;75643;56.928;41.094;2024-01-15T08:09:23;8.15;;;4.18;;
85243;SDS011;75643;56.928;41.094;2024-01-15T08:12:17;9.65;;;4.15;;
85243;SDS011;75643;56.928;41.094;2024-01-15T08:14:43;5.75;;;3.35;;
85243;SDS011;75643;56.928;41.094;2024-01-15T08:17:11;8.00;;;3.53;;
85243;SDS011;75643;56.928;41.094;2024-01-15T08:19:40;6.47;;;3.33;;
85243;SDS011;75643;56.928;41.094;2024-01-15T08:22:07;7.07;;;3.95;;
85243;SDS011;75643;56.928;41.094;2024-01-15T08:24:33;10.88;;;4.03;;
85243;SDS011;75643;56.928;41.094;2024-01-15T08:27:07;5.05;;;3.20;;
85243;SDS011;75643;56.928;41.094;2024-01-15T08:29:40;10.70;;;3.75;;
85243;SDS011;75643;56.928;41.094;2024-01-15T08:32:07;6.28;;;3.60;;
85243;SDS011;75643;56.928;41.094;2024-01-15T08:34:36;6.35;;;3.53;;
85243;SDS011;75643;56.928;41.094;2024-01-15T08:37:08;9.23;;;4.40;;
85243;SDS011;75643;56.928;41.094;2024-01-15T08:39:35;8.55;;;3.58;;
85243;SDS011;75643;56.928;41.094;2024-01-15T08:42:07;9.48;;;3.53;;
85243;SDS011;75643;56.928;41.094;2024-01-15T08:44:33;6.95;;;3.38;;
85243;SDS011;75643;56.928;41.094;2024-01-15T08:47:00;8.55;;;4.18;;
85243;SDS011;75643;56.928;41.094;2024-01-15T08:49:31;7.13;;;3.83;;
85243;SDS011;75643;56.928;41.094;2024-01-15T08:51:58;4.80;;;3.20;;
85243;SDS011;75643;56.928;41.094;2024-01-15T08:54:24;5.20;;;3.22;;
85243;SDS011;75643;56.928;41.094;2024-01-15T08:56:51;6.70;;;3.00;;
85243;SDS011;75643;56.928;41.094;2024-01-15T08:59:17;6.53;;;3.75;;
85243;SDS011;75643;56.928;41.094;2024-01-15T09:01:50;6.82;;;3.67;;
85243;SDS011;75643;56.928;41.094;2024-01-15T09:04:16;5.63;;;2.72;;
85243;SDS011;75643;56.928;41.094;2024-01-15T09:06:46;7.10;;;3.90;;
85243;SDS011;75643;56.928;41.094;2024-01-15T09:09:12;5.70;;;3.22;;
85243;SDS011;75643;56.928;41.094;2024-01-15T09:11:40;6.35;;;3.30;;
85243;SDS011;75643;56.928;41.094;2024-01-15T09:14:07;5.88;;;3.05;;
85243;SDS011;75643;56.928;41.094;2024-01-15T09:16:34;6.65;;;3.97;;
85243;SDS011;75643;56.928;41.094;2024-01-15T09:19:01;9.52;;;4.43;;
85243;SDS011;75643;56.928;41.094;2024-01-15T09:21:27;3.38;;;2.40;;
85243;SDS011;75643;56.928;41.094;2024-01-15T09:23:53;7.00;;;4.20;;
85243;SDS011;75643;56.928;41.094;2024-01-15T09:26:19;7.03;;;3.45;;
85243;SDS011;75643;56.928;41.094;2024-01-15T09:28:46;7.10;;;3.63;;
85243;SDS011;75643;56.928;41.094;2024-01-15T09:31:12;7.22;;;4.43;;
85243;SDS011;75643;56.928;41.094;2024-01-15T09:33:38;6.70;;;2.88;;
85243;SDS011;75643;56.928;41.094;2024-01-15T09:36:05;6.78;;;3.80;;
85243;SDS011;75643;56.928;41.094;2024-01-15T09:38:37;6.88;;;3.42;;
85243;SDS011;75643;56.928;41.094;2024-01-15T09:41:09;5.80;;;3.00;;
85243;SDS011;75643;56.928;41.094;2024-01-15T09:43:36;7.50;;;3.80;;
85243;SDS011;75643;56.928;41.094;2024-01-15T09:46:03;5.43;;;3.30;;
85243;SDS011;75643;56.928;41.094;2024-01-15T09:48:35;5.95;;;3.45;;
85243;SDS011;75643;56.928;41.094;2024-01-15T09:51:05;5.15;;;3.08;;
85243;SDS011;75643;56.928;41.094;2024-01-15T09:53:43;6.95;;;4.28;;
85243;SDS011;75643;56.928;41.094;2024-01-15T09:56:10;7.28;;;3.33;;
85243;SDS011;75643;56.928;41.094;2024-01-15T09:58:40;6.25;;;3.08;;
85243;SDS011;75643;56.928;41.094;2024-01-15T10:01:08;5.88;;;2.80;;
85243;SDS011;75643;56.928;41.094;2024-01-15T10:03:35;5.40;;;3.47;;
85243;SDS011;75643;56.928;41.094;2024-01-15T10:06:03;6.13;;;3.22;;
85243;SDS011;75643;56.928;41.094;2024-01-15T10:08:31;6.30;;;2.63;;
85243;SDS011;75643;56.928;41.094;2024-01-15T10:10:58;8.95;;;3.47;;
85243;SDS011;75643;56.928;41.094;2024-01-15T10:13:24;3.38;;;2.08;;
85243;SDS011;75643;56.928;41.094;2024-01-15T10:15:51;7.35;;;4.13;;
85243;SDS011;75643;56.928;41.094;2024-01-15T10:18:18;8.98;;;4.60;;
85243;SDS011;75643;56.928;41.094;2024-01-15T10:20:50;5.88;;;2.40;;
85243;SDS011;75643;56.928;41.094;2024-01-15T10:23:57;9.52;;;3.80;;
85243;SDS011;75643;56.928;41.094;2024-01-15T10:26:54;7.35;;;4.15;;
85243;SDS011;75643;56.928;41.094;2024-01-15T10:29:40;5.50;;;3.22;;
85243;SDS011;75643;56.928;41.094;2024-01-15T10:32:07;9.00;;;4.50;;
85243;SDS011;75643;56.928;41.094;2024-01-15T10:34:39;6.50;;;3.58;;
85243;SDS011;75643;56.928;41.094;2024-01-15T10:37:11;6.68;;;3.17;;
85243;SDS011;75643;56.928;41.094;2024-01-15T10:39:37;6.57;;;3.53;;
85243;SDS011;75643;56.928;41.094;2024-01-15T10:42:05;6.90;;;3.15;;
85243;SDS011;75643;56.928;41.094;2024-01-15T10:44:32;8.40;;;4.43;;
85243;SDS011;75643;56.928;41.094;2024-01-15T10:46:59;5.82;;;3.35;;
85243;SDS011;75643;56.928;41.094;2024-01-15T10:49:26;6.97;;;3.78;;
85243;SDS011;75643;56.928;41.094;2024-01-15T10:51:54;7.85;;;3.60;;
85243;SDS011;75643;56.928;41.094;2024-01-15T10:54:21;5.90;;;3.83;;
85243;SDS011;75643;56.928;41.094;2024-01-15T10:56:49;6.65;;;3.53;;
85243;SDS011;75643;56.928;41.094;2024-01-15T10:59:18;9.27;;;4.30;;
85243;SDS011;75643;56.928;41.094;2024-01-15T11:04:14;5.43;;;3.42;;
85243;SDS011;75643;56.928;41.094;2024-01-15T11:06:43;4.60;;;2.75;;
85243;SDS011;75643;56.928;41.094;2024-01-15T11:09:14;6.75;;;2.97;;
85243;SDS011;75643;56.928;41.094;2024-01-15T11:11:45;7.25;;;3.15;;
85243;SDS011;75643;56.928;41.094;2024-01-15T11:17:10;4.63;;;2.90;;
85243;SDS011;75643;56.928;41.094;2024-01-15T11:19:47;5.43;;;3.20;;
85243;SDS011;75643;56.928;41.094;2024-01-15T11:25:02;7.40;;;3.40;;
85243;SDS011;75643;56.928;41.094;2024-01-15T11:27:56;5.82;;;3.35;;
85243;SDS011;75643;56.928;41.094;2024-01-15T11:30:24;6.43;;;3.47;;
85243;SDS011;75643;56.928;41.094;2024-01-15T11:32:52;6.45;;;3.42;;
85243;SDS011;75643;56.928;41.094;2024-01-15T11:35:20;7.63;;;4.25;;
85243;SDS011;75643;56.928;41.094;2024-01-15T11:40:19;6.65;;;3.83;;
85243;SDS011;75643;56.928;41.094;2024-01-15T11:42:47;10.23;;;5.25;;
85243;SDS011;75643;56.928;41.094;2024-01-15T11:45:18;9.95;;;5.20;;
85243;SDS011;75643;56.928;41.094;2024-01-15T11:50:31;8.73;;;4.68;;
85243;SDS011;75643;56.928;41.094;2024-01-15T11:53:00;9.07;;;4.22;;
85243;SDS011;75643;56.928;41.094;2024-01-15T11:55:35;6.63;;;3.88;;
85243;SDS011;75643;56.928;41.094;2024-01-15T11:58:08;11.25;;;5.15;;
85243;SDS011;75643;56.928;41.094;2024-01-15T12:00:39;8.70;;;5.05;;
85243;SDS011;75643;56.928;41.094;2024-01-15T12:03:15;8.10;;;4.18;;
85243;SDS011;75643;56.928;41.094;2024-01-15T12:05:42;15.68;;;4.97;;
85243;SDS011;75643;56.928;41.094;2024-01-15T12:08:11;6.05;;;3.65;;
85243;SDS011;75643;56.928;41.094;2024-01-15T12:10:38;8.98;;;4.32;;
85243;SDS011;75643;56.928;41.094;2024-01-15T12:13:15;8.00;;;4.82;;
85243;SDS011;75643;56.928;41.094;2024-01-15T12:15:44;9.73;;;4.57;;
85243;SDS011;75643;56.928;41.094;2024-01-15T12:18:12;8.95;;;4.18;;
85243;SDS011;75643;56.928;41.094;2024-01-15T12:20:42;8.13;;;4.40;;
85243;SDS011;75643;56.928;41.094;2024-01-15T12:23:09;9.88;;;5.50;;
85243;SDS011;75643;56.928;41.094;2024-01-15T12:25:36;7.30;;;4.10;;
85243;SDS011;75643;56.928;41.094;2024-01-15T12:28:03;6.88;;;3.20;;
85243;SDS011;75643;56.928;41.094;2024-01-15T12:30:30;7.38;;;3.45;;
85243;SDS011;75643;56.928;41.094;2024-01-15T12:33:02;9.13;;;4.35;;
85243;SDS011;75643;56.928;41.094;2024-01-15T12:35:33;9.77;;;4.82;;
85243;SDS011;75643;56.928;41.094;2024-01-15T12:38:05;8.07;;;4.25;;
85243;SDS011;75643;56.928;41.094;2024-01-15T12:40:32;7.57;;;3.67;;
85243;SDS011;75643;56.928;41.094;2024-01-15T12:43:00;7.88;;;4.22;;
85243;SDS011;75643;56.928;41.094;2024-01-15T12:45:30;8.07;;;4.53;;
85243;SDS011;75643;56.928;41.094;2024-01-15T12:47:58;8.43;;;4.47;;
85243;SDS011;75643;56.928;41.094;2024-01-15T12:50:24;8.48;;;4.10;;
85243;SDS011;75643;56.928;41.094;2024-01-15T12:52:53;9.15;;;5.22;;
85243;SDS011;75643;56.928;41.094;2024-01-15T12:55:24;10.05;;;4.22;;
85243;SDS011;75643;56.928;41.094;2024-01-15T12:57:53;6.82;;;3.88;;
85243;SDS011;75643;56.928;41.094;2024-01-15T13:00:20;9.52;;;4.60;;
85243;SDS011;75643;56.928;41.094;2024-01-15T13:02:46;8.93;;;4.15;;
85243;SDS011;75643;56.928;41.094;2024-01-15T13:05:13;11.15;;;5.38;;
85243;SDS011;75643;56.928;41.094;2024-01-15T13:07:39;9.82;;;4.38;;
85243;SDS011;75643;56.928;41.094;2024-01-15T13:10:05;7.25;;;3.67;;
85243;SDS011;75643;56.928;41.094;2024-01-15T13:12:33;9.65;;;3.92;;
85243;SDS011;75643;56.928;41.094;2024-01-15T13:15:00;10.63;;;4.75;;
85243;SDS011;75643;56.928;41.094;2024-01-15T13:17:29;8.40;;;4.53;;
85243;SDS011;75643;56.928;41.094;2024-01-15T13:19:55;8.82;;;4.45;;
85243;SDS011;75643;56.928;41.094;2024-01-15T13:22:26;9.82;;;5.18;;
85243;SDS011;75643;56.928;41.094;2024-01-15T13:24:57;8.30;;;5.10;;
85243;SDS011;75643;56.928;41.094;2024-01-15T13:27:24;8.30;;;4.55;;
85243;SDS011;75643;56.928;41.094;2024-01-15T13:29:50;11.50;;;5.90;;
85243;SDS011;75643;56.928;41.094;2024-01-15T13:32:17;9.73;;;4.18;;
85243;SDS011;75643;56.928;41.094;2024-01-15T13:34:51;9.10;;;4.78;;
85243;SDS011;75643;56.928;41.094;2024-01-15T13:37:18;9.18;;;4.60;;
85243;SDS011;75643;56.928;41.094;2024-01-15T13:39:44;6.85;;;4.15;;
85243;SDS011;75643;56.928;41.094;2024-01-15T13:42:10;10.40;;;4.97;;
85243;SDS011;75643;56.928;41.094;2024-01-15T13:44:37;13.02;;;4.97;;
85243;SDS011;75643;56.928;41.094;2024-01-15T13:47:03;9.35;;;4.88;;
85243;SDS011;75643;56.928;41.094;2024-01-15T13:49:31;7.63;;;4.70;;
85243;SDS011;75643;56.928;41.094;2024-01-15T13:51:59;7.18;;;4.30;;
85243;SDS011;75643;56.928;41.094;2024-01-15T13:54:25;9.40;;;4.82;;
85243;SDS011;75643;56.928;41.094;2024-01-15T13:56:51;8.32;;;3.67;;
85243;SDS011;75643;56.928;41.094;2024-01-15T13:59:17;7.88;;;4.43;;
85243;SDS011;75643;56.928;41.094;2024-01-15T14:01:44;10.10;;;4.82;;
85243;SDS011;75643;56.928;41.094;2024-01-15T14:04:10;8.30;;;4.43;;
85243;SDS011;75643;56.928;41.094;2024-01-15T14:06:36;8.98;;;4.55;;
85243;SDS011;75643;56.928;41.094;2024-01-15T14:09:03;9.38;;;4.10;;
85243;SDS011;75643;56.928;41.094;2024-01-15T14:11:30;8.35;;;4.50;;
85243;SDS011;75643;56.928;41.094;2024-01-15T14:13:57;6.40;;;3.60;;
85243;SDS011;75643;56.928;41.094;2024-01-15T14:16:23;8.43;;;3.83;;
85243;SDS011;75643;56.928;41.094;2024-01-15T14:18:49;7.15;;;3.75;;
85243;SDS011;75643;56.928;41.094;2024-01-15T14:21:18;10.43;;;4.32;;
85243;SDS011;75643;56.928;41.094;2024-01-15T14:23:45;9.82;;;4.40;;
85243;SDS011;75643;56.928;41.094;2024-01-15T14:26:11;6.57;;;3.60;;
85243;SDS011;75643;56.928;41.094;2024-01-15T14:28:37;10.40;;;4.53;;
85243;SDS011;75643;56.928;41.094;2024-01-15T14:31:06;9.23;;;4.53;;
85243;SDS011;75643;56.928;41.094;2024-01-15T14:33:33;9.38;;;4.35;;
85243;SDS011;75643;56.928;41.094;2024-01-15T14:36:00;9.13;;;5.00;;
85243;SDS011;75643;56.928;41.094;2024-01-15T14:38:28;7.32;;;4.20;;
85243;SDS011;75643;56.928;41.094;2024-01-15T14:40:54;11.27;;;5.07;;
85243;SDS011;75643;56.928;41.094;2024-01-15T14:43:22;7.95;;;3.72;;
85243;SDS011;75643;56.928;41.094;2024-01-15T14:45:49;9.65;;;4.90;;
85243;SDS011;75643;56.928;41.094;2024-01-15T14:48:15;7.10;;;3.97;;
85243;SDS011;75643;56.928;41.094;2024-01-15T14:50:42;7.05;;;4.07;;
85243;SDS011;75643;56.928;41.094;2024-01-15T14:53:09;9.15;;;4.13;;